Time;durP1;ratioP1;P1;durP2;ratioP2;P2;SDS_P1;SDS_P2;PMS_P1;PMS_P2;Temp;Humidity;BMP_temperature;BMP_pressure;BME280_temperature;BME280_humidity;BME280_pressure;Samples;Min_cycle;Max_cycle;Signal;HPM_P1;HPM_P2
2023/09/01 00:00:12;;;;;;;8.10;5.40;;;11.60;99.90;;;;;;5023553;28;20503;-72
2023/09/01 00:02:39;;;;;;;10.05;6.00;;;11.60;99.90;;;;;;5008466;28;20042;-72
2023/09/01 00:05:05;;;;;;;7.28;5.43;;;11.60;99.90;;;;;;4999687;28;20038;-71
2023/09/01 00:07:32;;;;;;;11.90;5.43;;;11.60;99.90;;;;;;5008120;28;20068;-72
2023/09/01 00:10:00;;;;;;;9.43;5.60;;;11.60;99.90;;;;;;5031015;28;20038;-72
2023/09/01 00:12:26;;;;;;;9.70;5.55;;;11.60;99.90;;;;;;4982804;28;1131639;-72
2023/09/01 00:14:52;;;;;;;11.75;5.20;;;11.60;99.90;;;;;;4999671;28;20124;-72
2023/09/01 00:17:18;;;;;;;8.23;5.00;;;11.60;99.90;;;;;;5046659;28;20053;-72
2023/09/01 00:19:44;;;;;;;9.77;5.47;;;11.60;99.90;;;;;;4993691;28;20038;-72
2023/09/01 00:22:10;;;;;;;7.22;5.43;;;11.60;99.90;;;;;;5021287;28;20035;-72
2023/09/01 00:24:37;;;;;;;10.80;5.35;;;11.60;99.90;;;;;;5004287;28;20045;-72
2023/09/01 00:27:03;;;;;;;7.78;5.25;;;11.60;99.90;;;;;;5028697;28;20066;-72
2023/09/01 00:29:33;;;;;;;7.63;4.97;;;11.60;99.90;;;;;;5030546;28;20826;-72
2023/09/01 00:31:59;;;;;;;9.85;5.47;;;11.50;99.90;;;;;;5019366;28;20033;-72
2023/09/01 00:34:24;;;;;;;9.18;5.03;;;11.50;99.90;;;;;;5029333;28;20487;-72
2023/09/01 00:36:50;;;;;;;9.55;4.78;;;11.50;99.90;;;;;;4986925;28;20046;-72
2023/09/01 00:39:16;;;;;;;6.68;5.15;;;11.40;99.90;;;;;;4988561;28;20141;-72
2023/09/01 00:41:42;;;;;;;10.07;5.22;;;11.40;99.90;;;;;;5035605;28;20547;-72
2023/09/01 00:44:09;;;;;;;11.25;5.70;;;11.40;99.90;;;;;;5021274;28;20038;-72
2023/09/01 00:46:35;;;;;;;9.45;6.10;;;11.40;99.90;;;;;;5038583;28;20049;-72
2023/09/01 00:49:01;;;;;;;8.52;5.53;;;11.40;99.90;;;;;;4998773;28;20046;-72
2023/09/01 00:51:30;;;;;;;9.40;5.88;;;11.40;99.90;;;;;;4989846;28;20120;-72
2023/09/01 00:53:56;;;;;;;10.20;5.88;;;11.40;99.90;;;;;;4994325;28;20046;-72
2023/09/01 00:56:22;;;;;;;9.90;6.82;;;11.40;99.90;;;;;;5007987;28;20070;-72
2023/09/01 00:58:48;;;;;;;10.75;6.93;;;11.40;99.90;;;;;;5029285;28;20044;-72
2023/09/01 01:01:13;;;;;;;9.13;7.10;;;11.40;99.90;;;;;;5023746;28;20046;-72
2023/09/01 01:03:40;;;;;;;12.15;6.63;;;11.40;99.90;;;;;;4997399;28;20108;-72
2023/09/01 01:06:35;;;;;;;9.77;7.20;;;11.40;99.90;;;;;;4989919;28;20065;-72
2023/09/01 01:09:08;;;;;;;10.07;6.53;;;11.40;99.90;;;;;;5023040;28;20041;-71
2023/09/01 01:11:37;;;;;;;9.40;7.32;;;11.40;99.90;;;;;;5024213;28;20041;-71
2023/09/01 01:14:11;;;;;;;17.65;9.15;;;11.40;99.90;;;;;;5050239;28;20058;-71
2023/09/01 01:16:37;;;;;;;11.00;8.30;;;11.40;99.90;;;;;;4997857;28;20048;-72
2023/09/01 01:19:34;;;;;;;13.20;10.05;;;11.40;99.90;;;;;;5004737;28;20042;-72
2023/09/01 01:22:00;;;;;;;18.60;11.70;;;11.50;99.90;;;;;;5012138;28;20060;-72
2023/09/01 01:24:26;;;;;;;17.83;11.75;;;11.50;99.90;;;;;;5025563;28;20043;-71
2023/09/01 01:26:53;;;;;;;16.50;11.70;;;11.40;99.90;;;;;;5005003;28;20048;-71
2023/09/01 01:29:18;;;;;;;19.80;13.38;;;11.50;99.90;;;;;;5004455;28;20046;-71
2023/09/01 01:31:44;;;;;;;20.92;15.50;;;11.50;99.90;;;;;;5004973;28;20038;-71
2023/09/01 01:34:22;;;;;;;17.90;13.20;;;11.40;99.90;;;;;;5001724;28;20130;-72
2023/09/01 01:36:55;;;;;;;21.63;12.57;;;11.40;99.90;;;;;;5022196;28;20104;-72
2023/09/01 01:39:26;;;;;;;15.30;9.60;;;11.40;99.90;;;;;;5014415;28;20100;-71
2023/09/01 01:42:01;;;;;;;11.50;8.60;;;11.40;99.90;;;;;;5002556;28;20129;-71
2023/09/01 01:44:33;;;;;;;12.48;10.60;;;11.40;99.90;;;;;;5017079;28;20077;-72
2023/09/01 01:47:00;;;;;;;13.95;11.65;;;11.30;99.90;;;;;;4994153;28;20623;-71
2023/09/01 01:49:29;;;;;;;16.42;11.90;;;11.30;99.90;;;;;;5001483;28;20074;-71
2023/09/01 01:51:54;;;;;;;17.17;10.88;;;11.20;99.90;;;;;;5022754;28;20042;-72
2023/09/01 01:54:20;;;;;;;14.18;11.25;;;11.20;99.90;;;;;;5008964;28;20506;-72
2023/09/01 01:56:46;;;;;;;15.15;11.50;;;11.20;99.90;;;;;;5000072;28;20120;-72
2023/09/01 01:59:11;;;;;;;11.45;10.10;;;11.10;99.90;;;;;;5016080;28;20081;-72
2023/09/01 02:01:37;;;;;;;17.35;14.05;;;11.10;99.90;;;;;;5029263;28;20085;-72
2023/09/01 02:04:05;;;;;;;20.42;12.77;;;11.10;99.90;;;;;;5005918;28;20510;-72
2023/09/01 02:06:31;;;;;;;20.38;14.90;;;11.10;99.90;;;;;;4985569;28;20038;-72
2023/09/01 02:08:56;;;;;;;30.15;24.85;;;11.10;99.90;;;;;;5027614;28;20049;-72
2023/09/01 02:11:22;;;;;;;47.50;35.67;;;11.10;99.90;;;;;;5008670;28;20404;-72
2023/09/01 02:13:48;;;;;;;48.80;38.20;;;11.10;99.90;;;;;;4986476;28;20054;-72
2023/09/01 02:16:14;;;;;;;47.65;40.20;;;11.10;99.90;;;;;;5019805;28;20056;-72
2023/09/01 02:18:40;;;;;;;51.45;41.50;;;11.10;99.90;;;;;;5031224;28;20031;-72
2023/09/01 02:21:05;;;;;;;52.22;40.35;;;11.10;99.90;;;;;;5006251;28;20394;-72
2023/09/01 02:23:31;;;;;;;49.20;36.97;;;11.20;99.90;;;;;;5023005;28;20030;-72
2023/09/01 02:25:57;;;;;;;50.42;38.00;;;11.20;99.90;;;;;;4993818;28;20144;-72
2023/09/01 02:28:23;;;;;;;45.90;36.33;;;11.20;99.90;;;;;;5010380;28;20054;-72
2023/09/01 02:30:49;;;;;;;51.38;37.85;;;11.20;99.90;;;;;;5002127;28;20076;-71
2023/09/01 02:33:14;;;;;;;43.58;34.88;;;11.20;99.90;;;;;;4995798;28;20046;-71
2023/09/01 02:35:43;;;;;;;35.50;30.10;;;11.20;99.90;;;;;;5026622;28;20369;-72
2023/09/01 02:38:08;;;;;;;42.10;32.15;;;11.20;99.90;;;;;;5013084;28;20041;-71
2023/09/01 02:40:34;;;;;;;39.85;31.58;;;11.20;99.90;;;;;;4998661;28;20515;-72
2023/09/01 02:43:00;;;;;;;40.65;31.20;;;11.20;99.90;;;;;;4999601;28;20034;-72
2023/09/01 02:45:25;;;;;;;34.13;28.13;;;11.20;99.90;;;;;;5022770;28;20328;-72
2023/09/01 02:47:51;;;;;;;35.13;23.20;;;11.20;99.90;;;;;;5000307;28;20042;-71
2023/09/01 02:50:17;;;;;;;24.38;20.77;;;11.20;99.90;;;;;;5016014;28;20034;-72
2023/09/01 02:52:43;;;;;;;25.77;20.58;;;11.20;99.90;;;;;;5006752;28;20034;-71
2023/09/01 02:55:09;;;;;;;27.38;21.30;;;11.30;99.90;;;;;;5021462;28;20037;-72
2023/09/01 02:57:35;;;;;;;28.60;22.40;;;11.30;99.90;;;;;;5021121;28;20041;-71
2023/09/01 03:00:01;;;;;;;29.27;20.25;;;11.20;99.90;;;;;;4999139;28;20073;-73
2023/09/01 03:02:27;;;;;;;26.60;20.55;;;11.30;99.90;;;;;;5011636;28;20034;-71
2023/09/01 03:04:55;;;;;;;26.50;20.48;;;11.30;99.90;;;;;;5023207;28;20061;-71
2023/09/01 03:07:21;;;;;;;25.40;19.05;;;11.30;99.90;;;;;;5012923;28;20461;-72
2023/09/01 03:09:47;;;;;;;21.08;16.83;;;11.20;99.90;;;;;;5015325;28;20149;-72
2023/09/01 03:12:14;;;;;;;20.00;15.32;;;11.30;99.90;;;;;;4994477;28;20076;-72
2023/09/01 03:14:39;;;;;;;19.67;14.95;;;11.30;99.90;;;;;;5008934;28;20061;-72
2023/09/01 03:17:05;;;;;;;23.95;17.80;;;11.30;99.90;;;;;;5005999;28;20050;-72
2023/09/01 03:19:32;;;;;;;19.27;14.82;;;11.30;99.90;;;;;;5003213;28;20065;-72
2023/09/01 03:21:58;;;;;;;20.08;15.85;;;11.30;99.90;;;;;;5009335;28;20038;-72
2023/09/01 03:24:23;;;;;;;21.77;14.77;;;11.30;99.90;;;;;;5009954;28;20057;-72
2023/09/01 03:26:49;;;;;;;20.50;15.65;;;11.30;99.90;;;;;;5013919;28;20038;-72
2023/09/01 03:29:15;;;;;;;21.35;16.60;;;11.20;99.90;;;;;;5008705;28;20124;-72
2023/09/01 03:31:40;;;;;;;17.83;15.25;;;11.20;99.90;;;;;;5024248;28;20432;-71
2023/09/01 03:34:07;;;;;;;21.05;15.18;;;11.20;99.90;;;;;;5032488;28;20129;-72
2023/09/01 03:36:33;;;;;;;24.92;16.08;;;11.20;99.90;;;;;;5033217;28;20116;-72
2023/09/01 03:38:59;;;;;;;21.92;16.63;;;11.20;99.90;;;;;;5008313;28;20536;-72
2023/09/01 03:41:25;;;;;;;22.70;15.93;;;11.20;99.90;;;;;;5000332;28;20046;-71
2023/09/01 03:43:51;;;;;;;18.33;12.52;;;11.20;99.90;;;;;;5023924;28;20034;-72
2023/09/01 03:46:16;;;;;;;15.07;11.07;;;11.20;99.90;;;;;;5002605;28;20046;-72
2023/09/01 03:48:42;;;;;;;14.88;10.70;;;11.10;99.90;;;;;;4998627;28;20048;-72
2023/09/01 03:51:16;;;;;;;14.52;9.27;;;11.10;99.90;;;;;;4983303;28;20511;-72
2023/09/01 03:53:42;;;;;;;11.27;8.73;;;11.10;99.90;;;;;;5021951;28;20511;-72
2023/09/01 03:56:17;;;;;;;13.38;8.55;;;11.10;99.90;;;;;;4983827;28;20041;-72
2023/09/01 03:58:43;;;;;;;12.95;8.00;;;11.10;99.90;;;;;;5005388;28;20101;-72
2023/09/01 04:01:11;;;;;;;15.00;8.73;;;11.10;99.90;;;;;;5008287;28;20437;-72
2023/09/01 04:03:37;;;;;;;13.70;9.98;;;11.10;99.90;;;;;;4993498;28;20566;-72
2023/09/01 04:06:05;;;;;;;12.50;8.80;;;11.10;99.90;;;;;;4994665;28;20087;-72
2023/09/01 04:08:34;;;;;;;13.43;8.82;;;11.00;99.90;;;;;;5004733;28;20075;-72
2023/09/01 04:11:03;;;;;;;14.50;8.55;;;11.00;99.90;;;;;;5019833;28;20037;-71
2023/09/01 04:13:32;;;;;;;13.32;8.18;;;11.00;99.90;;;;;;5016294;28;20084;-72
2023/09/01 04:15:59;;;;;;;13.98;8.18;;;10.90;99.90;;;;;;5017104;28;20046;-71
2023/09/01 04:18:25;;;;;;;13.45;8.32;;;10.90;99.90;;;;;;5004721;28;20042;-69
2023/09/01 04:20:52;;;;;;;11.60;7.90;;;10.90;99.90;;;;;;5029504;28;20041;-69
2023/09/01 04:23:18;;;;;;;8.88;6.72;;;10.90;99.90;;;;;;5020533;28;20038;-69
2023/09/01 04:25:45;;;;;;;10.55;7.07;;;10.90;99.90;;;;;;5021627;28;20087;-70
2023/09/01 04:28:12;;;;;;;13.75;7.13;;;10.90;99.90;;;;;;5016324;28;20060;-69
2023/09/01 04:30:38;;;;;;;9.90;7.50;;;10.90;99.90;;;;;;5013180;28;20497;-69
2023/09/01 04:33:07;;;;;;;15.65;7.30;;;11.00;99.90;;;;;;5003952;28;20185;-69
2023/09/01 04:35:33;;;;;;;9.43;6.63;;;10.90;99.90;;;;;;4981842;28;20042;-68
2023/09/01 04:37:59;;;;;;;13.43;7.45;;;10.90;99.90;;;;;;5011687;28;20041;-69
2023/09/01 04:40:26;;;;;;;10.27;6.80;;;10.90;99.90;;;;;;5021003;28;20042;-68
2023/09/01 04:42:52;;;;;;;12.23;7.53;;;10.90;99.90;;;;;;4995363;28;20091;-68
2023/09/01 04:45:18;;;;;;;9.73;7.07;;;10.90;99.90;;;;;;5006695;28;20117;-69
2023/09/01 04:47:44;;;;;;;10.95;6.90;;;10.90;99.90;;;;;;5019113;28;20160;-69
2023/09/01 04:50:10;;;;;;;10.55;7.10;;;10.90;99.90;;;;;;5019073;28;20073;-69
2023/09/01 04:52:36;;;;;;;9.02;6.10;;;10.90;99.90;;;;;;4993305;28;20042;-69
2023/09/01 04:55:04;;;;;;;9.73;6.10;;;10.90;99.90;;;;;;5028595;28;20034;-69
2023/09/01 04:57:30;;;;;;;9.70;6.65;;;10.90;99.90;;;;;;5001411;28;20049;-69
2023/09/01 04:59:56;;;;;;;12.02;6.32;;;10.80;99.90;;;;;;5028683;28;20026;-69
2023/09/01 05:02:22;;;;;;;15.98;5.88;;;10.80;99.90;;;;;;4993339;28;20039;-69
2023/09/01 05:04:48;;;;;;;10.18;6.00;;;10.80;99.90;;;;;;5029317;28;20061;-68
2023/09/01 05:07:13;;;;;;;10.32;6.32;;;10.80;99.90;;;;;;5009024;28;20491;-69
2023/09/01 05:09:39;;;;;;;9.65;6.13;;;10.80;99.90;;;;;;5023496;28;20045;-69
2023/09/01 05:12:05;;;;;;;7.50;5.80;;;10.80;99.90;;;;;;5007269;28;20034;-69
2023/09/01 05:14:31;;;;;;;8.43;6.18;;;10.90;99.90;;;;;;5006408;28;20058;-70
2023/09/01 05:16:57;;;;;;;12.10;6.35;;;10.90;99.90;;;;;;4996859;28;20053;-69
2023/09/01 05:19:23;;;;;;;9.07;6.35;;;10.90;99.90;;;;;;5018245;28;20096;-69
2023/09/01 05:21:48;;;;;;;10.73;7.93;;;10.90;99.90;;;;;;5009782;28;20066;-69
2023/09/01 05:24:14;;;;;;;10.60;8.52;;;10.90;99.90;;;;;;5015694;28;20088;-70
2023/09/01 05:26:41;;;;;;;14.70;8.13;;;11.00;99.90;;;;;;5031701;28;20459;-70
2023/09/01 05:29:06;;;;;;;14.38;8.30;;;11.00;99.90;;;;;;5026130;28;20037;-70
2023/09/01 05:31:32;;;;;;;13.43;9.65;;;11.00;99.90;;;;;;5045225;28;20479;-70
2023/09/01 05:33:58;;;;;;;14.75;9.48;;;11.00;99.90;;;;;;5004456;28;20049;-69
2023/09/01 05:36:24;;;;;;;14.40;10.68;;;11.10;99.90;;;;;;4993960;28;20076;-69
2023/09/01 05:38:49;;;;;;;13.07;9.80;;;11.10;99.90;;;;;;4997543;28;20045;-69
2023/09/01 05:41:15;;;;;;;10.93;7.88;;;11.10;99.90;;;;;;5004074;28;20041;-69
2023/09/01 05:43:41;;;;;;;10.65;8.52;;;11.10;99.90;;;;;;5023702;28;20093;-69
2023/09/01 05:46:06;;;;;;;11.73;8.07;;;11.20;99.90;;;;;;5022279;28;20037;-70
2023/09/01 05:48:32;;;;;;;13.40;8.02;;;11.20;99.90;;;;;;5007376;28;20503;-70
2023/09/01 05:50:58;;;;;;;13.57;8.73;;;11.10;99.90;;;;;;4993960;28;20131;-69
2023/09/01 05:53:26;;;;;;;13.18;8.32;;;11.10;99.90;;;;;;5022282;28;20041;-69
2023/09/01 05:55:52;;;;;;;13.30;8.57;;;11.10;99.90;;;;;;5026445;28;20531;-70
2023/09/01 05:58:17;;;;;;;9.48;7.88;;;11.20;99.90;;;;;;4992643;28;20050;-69
2023/09/01 06:00:43;;;;;;;11.55;8.40;;;11.20;99.90;;;;;;5023854;28;20087;-69
2023/09/01 06:03:09;;;;;;;12.07;8.10;;;11.20;99.90;;;;;;4992737;28;20096;-70
2023/09/01 06:05:35;;;;;;;9.02;8.13;;;11.30;99.90;;;;;;4994086;28;20042;-69
2023/09/01 06:08:00;;;;;;;13.82;9.60;;;11.30;99.90;;;;;;5027764;28;20117;-69
2023/09/01 06:10:26;;;;;;;14.82;9.82;;;11.30;99.90;;;;;;4979610;28;20155;-69
2023/09/01 06:12:52;;;;;;;13.43;9.05;;;11.30;99.90;;;;;;5024873;28;20201;-69
2023/09/01 06:15:17;;;;;;;12.35;9.30;;;11.30;99.90;;;;;;5027525;28;20050;-69
2023/09/01 06:17:43;;;;;;;12.18;9.82;;;11.40;99.90;;;;;;4994196;28;20626;-69
2023/09/01 06:20:09;;;;;;;12.52;10.00;;;11.40;99.90;;;;;;4992063;28;20046;-69
2023/09/01 06:22:36;;;;;;;13.90;11.40;;;11.40;99.90;;;;;;5029268;28;20033;-69
2023/09/01 06:25:03;;;;;;;14.00;10.57;;;11.50;99.90;;;;;;5016394;28;20041;-69
2023/09/01 06:27:29;;;;;;;18.90;11.02;;;11.50;99.90;;;;;;4994829;28;20063;-69
2023/09/01 06:29:56;;;;;;;14.25;11.80;;;11.50;99.90;;;;;;5010284;28;20041;-69
2023/09/01 06:32:23;;;;;;;14.35;11.48;;;11.60;99.90;;;;;;5016916;28;20120;-69
2023/09/01 06:34:49;;;;;;;15.80;11.48;;;11.60;99.90;;;;;;5016575;28;20064;-70
2023/09/01 06:37:15;;;;;;;19.00;12.80;;;11.70;99.90;;;;;;5035227;28;20491;-70
2023/09/01 06:39:40;;;;;;;14.35;11.88;;;11.80;99.90;;;;;;5000844;28;20129;-70
2023/09/01 06:42:07;;;;;;;22.17;12.75;;;11.90;99.90;;;;;;5004952;28;20044;-70
2023/09/01 06:44:33;;;;;;;15.60;13.15;;;12.00;99.90;;;;;;5001079;28;20038;-70
2023/09/01 06:46:58;;;;;;;18.98;14.02;;;12.00;99.90;;;;;;5025509;28;20088;-70
2023/09/01 06:49:24;;;;;;;20.63;15.43;;;12.10;99.90;;;;;;4992857;28;20484;-70
2023/09/01 06:51:50;;;;;;;25.70;16.70;;;12.20;99.90;;;;;;4993142;28;20034;-70
2023/09/01 06:54:15;;;;;;;21.30;17.20;;;12.30;99.90;;;;;;4993303;28;20073;-70
2023/09/01 06:56:41;;;;;;;28.70;18.05;;;12.40;99.90;;;;;;4982527;28;20033;-70
2023/09/01 06:59:07;;;;;;;22.30;17.92;;;12.50;99.90;;;;;;5038218;28;20041;-70
2023/09/01 07:01:32;;;;;;;25.77;19.02;;;12.50;99.90;;;;;;5022220;28;20042;-70
2023/09/01 07:03:58;;;;;;;25.15;20.10;;;12.60;99.90;;;;;;5028598;28;20034;-70
2023/09/01 07:06:24;;;;;;;22.67;19.60;;;12.70;99.90;;;;;;5001963;28;20042;-70
2023/09/01 07:08:50;;;;;;;31.50;20.00;;;12.80;99.90;;;;;;4986338;28;20471;-70
2023/09/01 07:11:19;;;;;;;25.65;19.55;;;12.90;99.90;;;;;;5022829;28;20060;-70
2023/09/01 07:13:46;;;;;;;25.48;20.77;;;13.00;99.90;;;;;;5001728;28;20450;-70
2023/09/01 07:16:12;;;;;;;25.33;18.55;;;13.20;99.90;;;;;;5012532;28;20034;-69
2023/09/01 07:18:38;;;;;;;26.40;20.88;;;13.30;99.90;;;;;;5027983;28;20100;-70
2023/09/01 07:21:04;;;;;;;23.58;21.00;;;13.40;99.90;;;;;;5000700;28;20046;-70
2023/09/01 07:23:30;;;;;;;33.65;20.17;;;13.50;99.90;;;;;;5012410;28;20038;-70
2023/09/01 07:25:58;;;;;;;23.63;19.80;;;13.70;99.90;;;;;;5003377;28;20518;-70
2023/09/01 07:28:23;;;;;;;27.77;21.15;;;13.80;99.90;;;;;;5010297;28;20443;-70
2023/09/01 07:30:49;;;;;;;24.20;19.85;;;13.90;99.90;;;;;;5019729;28;20034;-70
2023/09/01 07:33:16;;;;;;;26.70;20.27;;;14.10;99.90;;;;;;5014183;28;20079;-69
2023/09/01 07:35:52;;;;;;;23.33;20.60;;;14.20;99.90;;;;;;5031162;28;20067;-69
2023/09/01 07:38:18;;;;;;;22.63;19.90;;;14.40;99.90;;;;;;5040046;28;20586;-69
2023/09/01 07:40:45;;;;;;;23.77;19.55;;;14.40;99.90;;;;;;5009296;28;20404;-69
2023/09/01 07:43:11;;;;;;;27.85;20.88;;;14.50;99.90;;;;;;5011152;28;20041;-70
2023/09/01 07:45:36;;;;;;;26.23;20.02;;;14.60;99.90;;;;;;5007146;28;20465;-70
2023/09/01 07:48:03;;;;;;;24.92;19.95;;;14.60;99.90;;;;;;5017307;28;20109;-70
2023/09/01 07:50:30;;;;;;;26.13;19.92;;;14.70;99.90;;;;;;4998671;28;20038;-70
2023/09/01 07:52:59;;;;;;;24.80;19.33;;;14.70;99.90;;;;;;4995401;28;20045;-70
2023/09/01 07:55:26;;;;;;;24.52;19.77;;;14.80;99.90;;;;;;5004603;28;20041;-70
2023/09/01 07:57:51;;;;;;;23.05;20.10;;;14.90;99.90;;;;;;4997854;28;20074;-70
2023/09/01 08:00:17;;;;;;;25.48;21.48;;;14.90;99.90;;;;;;5022761;28;20070;-70
2023/09/01 08:02:43;;;;;;;27.80;20.63;;;14.90;99.90;;;;;;5015982;28;20045;-70
2023/09/01 08:05:09;;;;;;;26.17;20.48;;;15.00;99.90;;;;;;5010954;28;20034;-70
2023/09/01 08:07:36;;;;;;;27.92;20.83;;;15.00;99.90;;;;;;5025800;28;20048;-69
2023/09/01 08:10:02;;;;;;;22.27;19.73;;;15.10;99.90;;;;;;4991526;28;20065;-69
2023/09/01 08:12:29;;;;;;;25.48;20.90;;;15.10;99.90;;;;;;5001760;28;20038;-69
2023/09/01 08:14:55;;;;;;;23.13;20.65;;;15.20;99.90;;;;;;5026973;28;20385;-69
2023/09/01 08:17:21;;;;;;;27.77;21.17;;;15.20;99.90;;;;;;5008034;28;20046;-69
2023/09/01 08:19:50;;;;;;;30.60;21.00;;;15.30;99.90;;;;;;5001516;28;20515;-69
2023/09/01 08:22:16;;;;;;;27.25;20.73;;;15.40;99.90;;;;;;5015175;28;20041;-69
2023/09/01 08:24:43;;;;;;;29.08;20.35;;;15.50;99.90;;;;;;5017457;28;20038;-69
2023/09/01 08:27:09;;;;;;;24.23;20.20;;;15.50;99.90;;;;;;5026507;28;20073;-69
2023/09/01 08:29:35;;;;;;;27.48;20.92;;;15.60;99.90;;;;;;5024820;28;20077;-69
2023/09/01 08:32:01;;;;;;;24.45;20.23;;;15.60;99.90;;;;;;5010032;28;20513;-69
2023/09/01 08:34:31;;;;;;;24.55;21.95;;;15.60;99.90;;;;;;5005180;28;20057;-69
2023/09/01 08:36:57;;;;;;;26.42;22.13;;;15.60;99.90;;;;;;5012941;28;20410;-69
2023/09/01 08:39:23;;;;;;;27.30;22.23;;;15.70;99.90;;;;;;5004591;28;20077;-69
2023/09/01 08:41:51;;;;;;;30.00;22.60;;;15.80;99.90;;;;;;5035506;28;20125;-69
2023/09/01 08:44:23;;;;;;;25.83;21.98;;;15.80;99.90;;;;;;5001410;28;20043;-69
2023/09/01 08:46:53;;;;;;;27.95;23.02;;;15.90;99.90;;;;;;5040932;28;20387;-69
2023/09/01 08:49:20;;;;;;;25.92;20.83;;;16.00;99.90;;;;;;5016829;28;20086;-69
2023/09/01 08:51:53;;;;;;;29.58;21.35;;;16.10;99.90;;;;;;5007373;28;20487;-69
2023/09/01 08:54:19;;;;;;;28.70;21.55;;;16.20;99.90;;;;;;5034074;28;20045;-69
2023/09/01 08:56:45;;;;;;;24.92;20.45;;;16.30;99.90;;;;;;5024826;28;20038;-70
2023/09/01 08:59:11;;;;;;;31.67;21.40;;;16.40;99.90;;;;;;5038471;28;20037;-69
2023/09/01 09:01:39;;;;;;;27.55;21.25;;;16.40;99.90;;;;;;4996131;28;20042;-69
2023/09/01 09:04:06;;;;;;;27.60;22.20;;;16.40;99.90;;;;;;5005347;28;20171;-69
2023/09/01 09:06:34;;;;;;;27.83;21.65;;;16.50;99.90;;;;;;5051424;28;20128;-69
2023/09/01 09:09:18;;;;;;;24.58;20.23;;;16.50;99.90;;;;;;5004188;28;20080;-69
2023/09/01 09:12:00;;;;;;;24.90;20.67;;;16.60;99.90;;;;;;4993290;28;20196;-70
2023/09/01 09:14:27;;;;;;;26.70;21.33;;;16.60;99.90;;;;;;5010208;28;20050;-70
2023/09/01 09:16:55;;;;;;;29.20;23.08;;;16.60;99.90;;;;;;5028293;28;20052;-69
2023/09/01 09:19:22;;;;;;;28.83;21.40;;;16.70;99.90;;;;;;5021922;28;20112;-70
2023/09/01 09:21:48;;;;;;;26.35;21.20;;;16.80;99.90;;;;;;5017260;28;20396;-70
2023/09/01 09:24:14;;;;;;;26.73;21.08;;;16.80;99.90;;;;;;5027182;28;20045;-69
2023/09/01 09:26:40;;;;;;;27.00;21.58;;;16.90;99.90;;;;;;5004039;28;20083;-70
2023/09/01 09:29:11;;;;;;;26.92;19.95;;;16.90;99.90;;;;;;5009529;28;20494;-69
2023/09/01 09:31:41;;;;;;;22.75;19.42;;;17.00;99.90;;;;;;5024785;28;20106;-70
2023/09/01 09:34:24;;;;;;;27.65;19.75;;;17.10;99.90;;;;;;5009825;28;20041;-70
2023/09/01 09:36:50;;;;;;;;;;;17.20;99.90;;;;;;5037681;28;20121;-69
2023/09/01 09:39:33;;;;;;;24.00;19.05;;;17.30;99.90;;;;;;5001698;28;20773;-70
2023/09/01 09:41:58;;;;;;;25.98;20.30;;;17.40;99.90;;;;;;5013727;28;20545;-70
2023/09/01 09:44:31;;;;;;;30.15;18.77;;;17.50;99.90;;;;;;4996589;28;20045;-70
2023/09/01 09:46:57;;;;;;;22.60;18.98;;;17.60;99.90;;;;;;5014626;28;20145;-70
2023/09/01 09:49:24;;;;;;;24.40;17.00;;;17.60;99.90;;;;;;5020592;28;20497;-70
2023/09/01 09:51:52;;;;;;;32.50;18.15;;;17.70;99.90;;;;;;5005062;28;20045;-68
2023/09/01 09:54:23;;;;;;;28.13;16.98;;;17.70;99.90;;;;;;5040938;28;20041;-70
2023/09/01 09:56:52;;;;;;;20.38;15.80;;;17.80;99.90;;;;;;5021655;28;20077;-70
2023/09/01 09:59:31;;;;;;;21.10;15.73;;;17.80;99.90;;;;;;5009878;28;20040;-70
2023/09/01 10:02:00;;;;;;;23.02;16.20;;;17.80;99.90;;;;;;5007260;28;20049;-70
2023/09/01 10:04:27;;;;;;;22.80;16.35;;;17.80;99.90;;;;;;5009080;28;20077;-69
2023/09/01 10:06:54;;;;;;;19.90;14.98;;;17.80;99.90;;;;;;5006999;28;20044;-69
2023/09/01 10:09:20;;;;;;;22.08;14.85;;;17.80;99.90;;;;;;5022123;28;20049;-70
2023/09/01 10:11:46;;;;;;;22.85;13.88;;;17.80;99.90;;;;;;5035947;28;20037;-70
2023/09/01 10:14:13;;;;;;;22.33;14.00;;;17.80;99.90;;;;;;4987560;28;20081;-69
2023/09/01 10:16:40;;;;;;;20.48;12.27;;;17.80;99.90;;;;;;5037639;28;20057;-69
2023/09/01 10:19:09;;;;;;;20.90;12.75;;;17.80;99.90;;;;;;4989405;28;20054;-68
2023/09/01 10:21:36;;;;;;;19.17;11.52;;;18.00;99.90;;;;;;5034303;28;20410;-69
2023/09/01 10:24:02;;;;;;;15.98;11.20;;;17.80;99.90;;;;;;4989658;28;20037;-70
2023/09/01 10:26:32;;;;;;;20.67;12.65;;;17.80;99.90;;;;;;5042662;28;20113;-70
2023/09/01 10:29:03;;;;;;;21.92;12.45;;;17.80;99.90;;;;;;5008887;28;20697;-70
2023/09/01 10:31:31;;;;;;;16.27;11.65;;;17.90;99.90;;;;;;5010182;28;20076;-70
2023/09/01 10:34:15;;;;;;;20.40;11.93;;;18.00;99.90;;;;;;5010719;28;20037;-69
2023/09/01 10:36:43;;;;;;;18.70;12.80;;;17.90;99.90;;;;;;5027124;28;20427;-70
2023/09/01 10:39:24;;;;;;;16.48;11.82;;;18.00;99.90;;;;;;4996338;28;20112;-69
2023/09/01 10:41:54;;;;;;;19.38;11.38;;;18.00;99.90;;;;;;5008032;28;20052;-69
2023/09/01 10:44:21;;;;;;;19.17;11.02;;;18.00;99.90;;;;;;4996450;28;20120;-70
2023/09/01 10:46:47;;;;;;;18.90;11.25;;;18.10;99.90;;;;;;5022829;28;20121;-69
2023/09/01 10:49:14;;;;;;;21.17;11.35;;;18.10;99.90;;;;;;5015015;28;20049;-69
2023/09/01 10:51:40;;;;;;;22.25;12.43;;;18.10;99.90;;;;;;5028000;28;20052;-69
2023/09/01 10:54:28;;;;;;;14.68;10.43;;;18.10;99.90;;;;;;4980829;28;20029;-68
2023/09/01 10:56:56;;;;;;;19.02;11.43;;;18.00;99.90;;;;;;5013910;28;20088;-69
2023/09/01 10:59:35;;;;;;;15.48;10.63;;;18.00;99.90;;;;;;5001346;28;20122;-69
2023/09/01 11:02:24;;;;;;;13.45;10.60;;;17.90;99.90;;;;;;5035117;28;20482;-69
2023/09/01 11:04:50;;;;;;;13.20;9.05;;;17.90;99.90;;;;;;5007355;28;20037;-69
2023/09/01 11:07:16;;;;;;;16.02;9.80;;;17.90;99.90;;;;;;4997490;28;20038;-70
2023/09/01 11:09:44;;;;;;;16.23;9.75;;;17.80;99.90;;;;;;5010690;28;20039;-69
2023/09/01 11:12:12;;;;;;;18.50;10.48;;;17.80;99.90;;;;;;4994225;28;20054;-69
2023/09/01 11:14:55;;;;;;;16.38;9.60;;;17.70;99.90;;;;;;4995327;28;20132;-69
2023/09/01 11:17:43;;;;;;;15.60;8.70;;;17.70;99.90;;;;;;5032371;28;20157;-69
2023/09/01 11:20:10;;;;;;;13.00;10.00;;;17.70;99.90;;;;;;4998953;28;20171;-68
2023/09/01 11:22:41;;;;;;;15.90;9.50;;;17.70;99.90;;;;;;5004986;28;20097;-69
2023/09/01 11:25:17;;;;;;;12.82;9.00;;;17.80;99.90;;;;;;5002827;28;20070;-69
2023/09/01 11:27:44;;;;;;;13.88;8.60;;;17.70;99.90;;;;;;5000178;28;20072;-69
2023/09/01 11:30:11;;;;;;;15.13;8.73;;;17.70;99.90;;;;;;5018270;28;20050;-68
2023/09/01 11:32:36;;;;;;;15.55;8.80;;;17.70;99.90;;;;;;4999459;28;20415;-68
2023/09/01 11:35:03;;;;;;;12.60;8.52;;;17.70;99.90;;;;;;5003359;28;20048;-68
2023/09/01 11:37:36;;;;;;;12.65;8.55;;;17.70;99.90;;;;;;4985530;28;20061;-68
2023/09/01 11:40:07;;;;;;;17.52;8.73;;;17.70;99.90;;;;;;5000100;28;20041;-68
2023/09/01 11:42:34;;;;;;;14.40;9.25;;;17.70;99.90;;;;;;5022297;28;20515;-68
2023/09/01 11:45:03;;;;;;;13.00;8.13;;;17.70;99.90;;;;;;4996492;28;20038;-68
2023/09/01 11:47:30;;;;;;;14.80;8.40;;;17.70;99.90;;;;;;5021635;28;20118;-68
2023/09/01 11:49:56;;;;;;;15.98;8.88;;;17.70;99.90;;;;;;5023981;28;20049;-68
2023/09/01 11:52:23;;;;;;;14.77;8.32;;;17.70;99.90;;;;;;5003585;28;20050;-69
2023/09/01 11:54:48;;;;;;;13.85;7.95;;;17.70;99.90;;;;;;5018488;28;20042;-69
2023/09/01 11:57:14;;;;;;;14.18;8.60;;;17.70;99.90;;;;;;5021515;28;20473;-68
2023/09/01 11:59:47;;;;;;;15.05;8.50;;;17.80;99.90;;;;;;5003823;28;20034;-68
2023/09/01 12:02:17;;;;;;;14.73;9.80;;;17.80;99.90;;;;;;4999864;28;20034;-68
2023/09/01 12:04:50;;;;;;;16.20;9.43;;;17.80;99.90;;;;;;5032142;28;20590;-68
2023/09/01 12:07:24;;;;;;;15.70;9.43;;;17.80;99.90;;;;;;4991523;28;20034;-68
2023/09/01 12:09:52;;;;;;;12.20;8.77;;;17.80;99.90;;;;;;5040373;28;20049;-68
2023/09/01 12:12:18;;;;;;;15.45;9.48;;;17.80;99.90;;;;;;5001881;28;20121;-68
2023/09/01 12:14:43;;;;;;;13.80;9.10;;;17.80;99.90;;;;;;4998803;28;20144;-68
2023/09/01 12:17:20;;;;;;;15.55;9.00;;;17.90;99.90;;;;;;5025933;28;20053;-68
2023/09/01 12:19:49;;;;;;;14.85;8.90;;;18.00;99.90;;;;;;5013232;28;20509;-68
2023/09/01 12:22:20;;;;;;;14.77;8.15;;;18.10;99.90;;;;;;5008415;28;20117;-68
2023/09/01 12:24:53;;;;;;;12.07;8.77;;;18.20;99.90;;;;;;5019258;28;20117;-68
2023/09/01 12:27:19;;;;;;;16.70;8.77;;;18.30;99.90;;;;;;5027903;28;20045;-68
2023/09/01 12:29:46;;;;;;;15.65;8.48;;;18.40;99.90;;;;;;4994269;28;20034;-68
2023/09/01 12:32:12;;;;;;;16.55;8.93;;;18.40;99.90;;;;;;5025992;28;20436;-68
2023/09/01 12:34:38;;;;;;;12.10;8.65;;;18.40;99.90;;;;;;5000693;28;20062;-68